Time;durP1;ratioP1;P1;durP2;ratioP2;P2;SDS_P1;SDS_P2;PMS_P1;PMS_P2;Temp;Humidity;BMP_temperature;BMP_pressure;BME280_temperature;BME280_humidity;BME280_pressure;Samples;Min_cycle;Max_cycle;Signal;HPM_P1;HPM_P2
2022/04/26 03:36:10;;;;;;;12.90;8.70;;;;;;;7.13;100.00;100573.19;679338;28;1383;-82
2022/04/26 03:36:30;;;;;;;12.65;8.70;;;;;;;7.14;100.00;100571.44;679147;28;1558;-81
2022/04/26 03:36:51;;;;;;;11.77;8.40;;;;;;;7.12;100.00;100576.66;676350;29;1476;-82
2022/04/26 03:37:17;;;;;;;11.60;8.43;;;;;;;7.11;100.00;100574.03;676064;29;4312;-82
2022/04/26 03:37:37;;;;;;;12.05;8.50;;;;;;;7.09;100.00;100574.03;675776;29;1694;-81
2022/04/26 03:37:57;;;;;;;12.03;8.50;;;;;;;7.09;100.00;100574.03;674506;29;1093;-82
2022/04/26 03:38:18;;;;;;;12.00;8.57;;;;;;;7.09;100.00;100574.03;676842;29;1265;-82
2022/04/26 03:38:43;;;;;;;12.40;8.90;;;;;;;7.10;100.00;100570.56;674275;29;1256;-82
2022/04/26 03:39:05;;;;;;;11.90;8.93;;;;;;;7.10;100.00;100578.38;674357;29;8147;-82
2022/04/26 03:39:26;;;;;;;11.07;8.65;;;;;;;7.09;100.00;100579.22;677761;29;1218;-83
2022/04/26 03:39:46;;;;;;;12.18;8.68;;;;;;;7.08;100.00;100577.47;676333;29;1154;-82
2022/04/26 03:40:08;;;;;;;12.52;9.32;;;;;;;7.08;100.00;100577.47;675878;29;4372;-82
2022/04/26 03:40:28;;;;;;;12.40;9.25;;;;;;;7.07;100.00;100583.53;682393;28;1458;-81
2022/04/26 03:40:49;;;;;;;12.17;8.90;;;;;;;7.08;100.00;100574.00;675925;29;1542;-82
2022/04/26 03:41:10;;;;;;;13.43;9.10;;;;;;;7.09;100.00;100580.94;676525;29;1400;-82
2022/04/26 03:41:31;;;;;;;13.88;9.38;;;;;;;7.11;100.00;100579.22;676258;29;1445;-82
2022/04/26 03:41:52;;;;;;;12.07;9.25;;;;;;;7.11;100.00;100579.22;676082;29;1614;-82
2022/04/26 03:42:13;;;;;;;11.90;9.10;;;;;;;7.10;100.00;100577.47;679592;28;1557;-82
2022/04/26 03:42:36;;;;;;;11.40;8.88;;;;;;;7.09;100.00;100583.53;679929;29;1476;-81
2022/04/26 03:42:56;;;;;;;12.80;9.23;;;;;;;7.09;100.00;100576.63;678442;28;4380;-81
2022/04/26 03:43:17;;;;;;;11.18;8.73;;;;;;;7.10;100.00;100580.97;677833;29;1512;-82
2022/04/26 03:43:38;;;;;;;11.05;9.02;;;;;;;7.13;100.00;100587.91;679772;29;1592;-82
2022/04/26 03:43:58;;;;;;;12.87;9.30;;;;;;;7.16;100.00;100590.53;679095;29;1647;-82
2022/04/26 03:44:19;;;;;;;11.73;8.55;;;;;;;7.15;100.00;100579.25;679552;29;1615;-82
2022/04/26 03:44:40;;;;;;;13.70;8.77;;;;;;;7.15;100.00;100579.25;676260;29;1770;-82
2022/04/26 03:45:01;;;;;;;15.40;9.00;;;;;;;7.13;100.00;100578.41;672769;29;1396;-82
2022/04/26 03:45:21;;;;;;;12.63;8.82;;;;;;;7.14;100.00;100584.44;671826;29;1866;-81
2022/04/26 03:45:42;;;;;;;13.40;9.10;;;;;;;7.14;100.00;100607.84;673836;29;1282;-82
2022/04/26 03:46:02;;;;;;;13.80;9.13;;;;;;;7.18;100.00;100582.75;673128;29;4502;-81
2022/04/26 03:46:23;;;;;;;11.93;8.53;;;;;;;7.21;100.00;100577.56;674794;29;1032;-81
2022/04/26 03:46:43;;;;;;;11.38;8.55;;;;;;;7.20;100.00;100578.44;676476;29;1384;-81
2022/04/26 03:47:05;;;;;;;11.18;8.45;;;;;;;7.20;100.00;100584.50;677157;29;1242;-81
2022/04/26 03:47:25;;;;;;;10.68;8.52;;;;;;;7.16;100.00;100578.41;671854;29;1447;-82
2022/04/26 03:47:45;;;;;;;11.30;8.43;;;;;;;7.15;100.00;100581.84;672189;29;1262;-82
2022/04/26 03:48:06;;;;;;;12.85;8.75;;;;;;;7.15;100.00;100602.66;672383;29;1636;-82
2022/04/26 03:48:28;;;;;;;11.25;8.43;;;;;;;7.14;100.00;100576.66;671582;29;1433;-82
2022/04/26 03:48:49;;;;;;;10.52;8.55;;;;;;;7.13;100.00;100594.00;672990;29;1676;-82
2022/04/26 03:49:10;;;;;;;10.63;8.30;;;;;;;7.16;100.00;100581.00;671004;29;4391;-82
2022/04/26 03:49:30;;;;;;;10.13;8.20;;;;;;;7.16;100.00;100578.41;676950;29;1691;-82
2022/04/26 03:49:51;;;;;;;10.43;8.15;;;;;;;7.19;100.00;100607.91;676960;29;1641;-83
2022/04/26 03:50:11;;;;;;;10.60;8.03;;;;;;;7.20;100.00;100581.03;677139;29;1633;-82
2022/04/26 03:50:32;;;;;;;10.13;8.00;;;;;;;7.15;100.00;100575.81;674402;29;1387;-82
2022/04/26 03:50:52;;;;;;;10.40;8.20;;;;;;;7.13;100.00;100587.91;675712;29;1404;-82
2022/04/26 03:51:12;;;;;;;11.45;8.55;;;;;;;7.10;100.00;100593.97;672076;29;1398;-82
2022/04/26 03:51:34;;;;;;;11.88;8.63;;;;;;;7.09;100.00;100604.31;669305;29;1813;-82
2022/04/26 03:51:54;;;;;;;11.70;8.63;;;;;;;7.04;100.00;100575.72;668139;29;4352;-82
2022/04/26 03:52:15;;;;;;;10.90;8.63;;;;;;;7.04;100.00;100619.03;672483;29;1967;-81
2022/04/26 03:52:36;;;;;;;11.85;8.55;;;;;;;7.03;100.00;100575.69;673769;29;1521;-81
2022/04/26 03:52:57;;;;;;;11.60;8.30;;;;;;;7.04;100.00;100593.91;676116;29;1574;-81
2022/04/26 03:53:18;;;;;;;11.57;8.93;;;;;;;7.03;100.00;100576.56;677161;29;1911;-82
2022/04/26 03:53:39;;;;;;;12.15;9.02;;;;;;;7.01;100.00;100603.41;679473;29;1729;-82
2022/04/26 03:54:00;;;;;;;13.25;8.82;;;;;;;7.03;100.00;100581.75;673576;29;1358;-83
2022/04/26 03:54:24;;;;;;;11.35;8.48;;;;;;;7.04;100.00;100583.50;676836;29;1658;-82
2022/04/26 03:54:45;;;;;;;12.07;8.73;;;;;;;7.04;100.00;100587.84;676709;29;1473;-81
2022/04/26 03:55:06;;;;;;;13.97;9.10;;;;;;;7.05;100.00;100585.25;676211;29;5420;-82
2022/04/26 03:55:26;;;;;;;14.48;9.07;;;;;;;7.06;100.00;100589.59;677121;29;1100;-82
2022/04/26 03:55:47;;;;;;;11.38;8.73;;;;;;;7.09;100.00;100580.94;676839;29;1174;-81
2022/04/26 03:56:08;;;;;;;12.05;8.85;;;;;;;7.09;100.00;100591.34;676476;29;1555;-81
2022/04/26 03:56:29;;;;;;;11.48;8.93;;;;;;;7.09;100.00;100593.94;679013;28;1682;-82
2022/04/26 03:56:49;;;;;;;11.73;9.10;;;;;;;7.08;100.00;100590.47;679146;28;1084;-82
2022/04/26 03:57:10;;;;;;;13.48;9.23;;;;;;;7.08;100.00;100584.41;676965;29;1650;-82
2022/04/26 03:57:30;;;;;;;12.57;8.93;;;;;;;7.08;100.00;100593.06;676831;29;1407;-82
2022/04/26 03:57:51;;;;;;;12.43;8.77;;;;;;;7.10;100.00;100588.78;677482;29;1701;-82
2022/04/26 03:58:17;;;;;;;13.43;9.30;;;;;;;7.10;100.00;100598.28;676031;29;4301;-82
2022/04/26 03:58:37;;;;;;;12.07;8.80;;;;;;;7.13;100.00;100588.78;676319;29;1673;-82
2022/04/26 03:58:58;;;;;;;12.20;8.77;;;;;;;7.17;100.00;100600.06;675090;29;1312;-82
2022/04/26 03:59:19;;;;;;;11.98;8.60;;;;;;;7.15;100.00;100592.25;676975;29;1424;-81
2022/04/26 03:59:39;;;;;;;12.80;9.00;;;;;;;7.14;100.00;100592.25;676513;29;1016;-82
2022/04/26 04:00:00;;;;;;;12.70;9.03;;;;;;;7.15;100.00;100594.00;680352;28;1243;-81
2022/04/26 04:00:20;;;;;;;12.45;9.32;;;;;;;7.16;100.00;100593.16;680845;28;1626;-82
2022/04/26 04:00:41;;;;;;;12.18;9.07;;;;;;;7.16;100.00;100586.22;676479;29;1190;-82
2022/04/26 04:01:01;;;;;;;12.17;8.97;;;;;;;7.17;100.00;100600.06;679299;28;4457;-82
2022/04/26 04:01:22;;;;;;;11.60;9.20;;;;;;;7.18;100.00;100591.41;679576;29;1482;-82
2022/04/26 04:01:43;;;;;;;12.88;9.10;;;;;;;7.21;100.00;100598.38;679158;28;1424;-82
2022/04/26 04:02:04;;;;;;;13.37;8.73;;;;;;;7.20;100.00;100597.50;678238;29;1203;-83
2022/04/26 04:02:24;;;;;;;13.65;9.35;;;;;;;7.16;100.00;100596.59;674332;29;1401;-82
2022/04/26 04:02:47;;;;;;;12.10;9.13;;;;;;;7.14;100.00;100608.75;678851;28;1292;-82
2022/04/26 04:03:07;;;;;;;12.63;9.30;;;;;;;7.15;100.00;100597.47;676975;29;1409;-81
2022/04/26 04:03:28;;;;;;;12.90;9.50;;;;;;;7.13;100.00;100596.59;679213;29;1463;-81
2022/04/26 04:03:48;;;;;;;12.25;9.35;;;;;;;7.14;100.00;100594.84;674314;29;1387;-82
2022/04/26 04:04:09;;;;;;;12.60;9.20;;;;;;;7.14;100.00;100594.84;673102;29;5146;-82
2022/04/26 04:04:29;;;;;;;12.55;8.88;;;;;;;7.13;100.00;100598.28;676285;29;1424;-82
2022/04/26 04:04:53;;;;;;;12.88;9.40;;;;;;;7.12;100.00;100627.78;678295;29;1621;-82
2022/04/26 04:05:14;;;;;;;12.45;9.45;;;;;;;7.11;100.00;100600.03;679801;28;1656;-82
2022/04/26 04:05:35;;;;;;;13.02;9.38;;;;;;;7.11;100.00;100616.50;675718;29;1467;-82
2022/04/26 04:05:56;;;;;;;13.50;9.53;;;;;;;7.13;100.00;100601.78;678284;28;1489;-82
2022/04/26 04:06:19;;;;;;;13.88;9.73;;;;;;;7.11;100.00;100590.50;679573;29;1658;-82
2022/04/26 04:06:42;;;;;;;12.35;9.13;;;;;;;7.13;100.00;100594.00;679329;29;1264;-82
2022/04/26 04:07:03;;;;;;;12.13;8.85;;;;;;;7.13;100.00;100627.78;678316;28;4321;-82
2022/04/26 04:07:24;;;;;;;12.35;8.77;;;;;;;7.12;100.00;100592.25;675155;29;1752;-82
2022/04/26 04:07:44;;;;;;;12.43;9.10;;;;;;;7.13;100.00;100617.38;675471;29;1305;-82
2022/04/26 04:08:05;;;;;;;12.52;8.90;;;;;;;7.14;100.00;100610.44;673369;29;1369;-82
2022/04/26 04:08:26;;;;;;;12.20;8.90;;;;;;;7.12;100.00;100594.84;675669;29;1246;-82
2022/04/26 04:08:47;;;;;;;11.82;8.90;;;;;;;7.14;100.00;100595.75;679177;28;1638;-82
2022/04/26 04:09:10;;;;;;;12.00;8.87;;;;;;;7.13;100.00;100617.38;674070;29;1260;-83
2022/04/26 04:09:31;;;;;;;11.85;9.20;;;;;;;7.14;100.00;100613.03;676260;29;1721;-82
2022/04/26 04:09:52;;;;;;;11.80;9.15;;;;;;;7.15;100.00;100597.47;677373;28;1398;-82
2022/04/26 04:10:13;;;;;;;12.38;9.18;;;;;;;7.16;100.00;100617.41;675068;29;4397;-83
2022/04/26 04:10:41;;;;;;;11.93;8.63;;;;;;;7.13;100.00;100609.59;673061;29;1638;-82
2022/04/26 04:11:02;;;;;;;13.47;8.93;;;;;;;7.14;100.00;100611.34;676722;29;1371;-81
2022/04/26 04:11:25;;;;;;;12.13;9.25;;;;;;;7.13;100.00;100594.00;678206;29;2498;-82
2022/04/26 04:11:49;;;;;;;12.18;8.90;;;;;;;7.11;100.00;100611.28;677869;29;1392;-82
2022/04/26 04:12:13;;;;;;;11.65;8.68;;;;;;;7.13;100.00;100588.78;676792;29;1520;-82
2022/04/26 04:12:33;;;;;;;12.05;8.90;;;;;;;7.14;100.00;100597.44;677784;29;1473;-81
2022/04/26 04:12:54;;;;;;;11.38;8.45;;;;;;;7.13;100.00;100609.59;674641;29;1649;-82
2022/04/26 04:13:16;;;;;;;11.60;8.45;;;;;;;7.14;100.00;100587.94;676183;29;4430;-82
2022/04/26 04:13:37;;;;;;;11.57;8.90;;;;;;;7.18;100.00;100585.34;677095;29;1500;-82
2022/04/26 04:13:57;;;;;;;12.27;8.83;;;;;;;7.14;100.00;100590.53;678102;28;1178;-82
2022/04/26 04:14:17;;;;;;;12.60;9.00;;;;;;;7.14;100.00;100584.44;677265;29;1252;-81
2022/04/26 04:14:41;;;;;;;12.73;9.47;;;;;;;7.13;100.00;100607.00;673098;29;1397;-82
2022/04/26 04:15:01;;;;;;;13.13;9.00;;;;;;;7.16;100.00;100620.00;672076;29;1646;-82
2022/04/26 04:15:22;;;;;;;11.87;8.80;;;;;;;7.15;100.00;100601.78;674423;29;1539;-81
2022/04/26 04:15:48;;;;;;;11.90;8.82;;;;;;;7.13;100.00;100581.00;679427;29;1906;-82
2022/04/26 04:16:10;;;;;;;12.85;9.68;;;;;;;7.14;100.00;100580.16;668734;28;4513;-81
2022/04/26 04:16:30;;;;;;;11.85;9.10;;;;;;;7.16;100.00;100612.22;676404;29;1657;-81
2022/04/26 04:16:51;;;;;;;12.38;9.20;;;;;;;7.19;100.00;100595.75;677491;29;1726;-82
2022/04/26 04:17:11;;;;;;;12.37;9.37;;;;;;;7.16;100.00;100607.00;676378;29;1446;-82
2022/04/26 04:17:32;;;;;;;12.55;9.30;;;;;;;7.17;100.00;100618.25;675402;29;1445;-82
2022/04/26 04:17:53;;;;;;;11.70;9.13;;;;;;;7.17;100.00;100600.06;673834;29;1992;-82
2022/04/26 04:19:36;;;;;;;13.23;9.30;;;;;;;7.16;100.00;100596.59;672700;29;4948;-82
2022/04/26 04:19:56;;;;;;;12.90;9.05;;;;;;;7.16;100.00;100586.22;676604;29;1646;-81
2022/04/26 04:20:17;;;;;;;12.53;9.07;;;;;;;7.17;100.00;100579.28;677241;29;1676;-81
2022/04/26 04:20:39;;;;;;;12.90;9.25;;;;;;;7.19;100.00;100581.91;674368;29;1665;-82
2022/04/26 04:21:00;;;;;;;12.37;9.23;;;;;;;7.18;100.00;100580.16;673425;29;1550;-82
2022/04/26 04:21:21;;;;;;;12.23;9.35;;;;;;;7.19;100.00;100576.72;673728;29;1337;-81
2022/04/26 04:21:42;;;;;;;12.27;9.48;;;;;;;7.19;100.00;100579.31;675368;29;1198;-81
2022/04/26 04:22:05;;;;;;;11.43;9.05;;;;;;;7.20;100.00;100581.91;676171;29;4324;-82
2022/04/26 04:22:26;;;;;;;11.77;8.90;;;;;;;7.18;100.00;100572.34;677598;29;1765;-81
2022/04/26 04:22:53;;;;;;;13.33;9.67;;;;;;;7.17;100.00;100581.88;674610;29;2240;-82
2022/04/26 04:23:14;;;;;;;12.77;9.88;;;;;;;7.14;100.00;100593.13;677179;29;1886;-82
2022/04/26 04:23:38;;;;;;;13.00;9.43;;;;;;;7.15;100.00;100588.78;672532;29;1597;-82
2022/04/26 04:24:01;;;;;;;12.80;9.13;;;;;;;7.15;100.00;100576.66;668842;29;1289;-81
2022/04/26 04:24:22;;;;;;;12.55;9.40;;;;;;;7.14;100.00;100592.25;671351;29;1377;-82
2022/04/26 04:24:42;;;;;;;12.90;9.25;;;;;;;7.12;100.00;100610.44;673288;29;1598;-82
2022/04/26 04:25:03;;;;;;;12.63;9.20;;;;;;;7.10;100.00;100575.78;678155;28;4312;-82
2022/04/26 04:25:24;;;;;;;12.52;9.57;;;;;;;7.11;100.00;100603.50;678508;29;1577;-82
2022/04/26 04:25:45;;;;;;;13.57;9.88;;;;;;;7.10;100.00;100608.69;678667;28;1258;-82
2022/04/26 04:26:06;;;;;;;12.80;9.60;;;;;;;7.09;100.00;100602.63;676242;29;1635;-82
2022/04/26 04:26:26;;;;;;;12.38;9.50;;;;;;;7.09;100.00;100615.63;674376;29;1276;-83
2022/04/26 04:26:47;;;;;;;12.33;9.30;;;;;;;7.10;100.00;100599.16;674317;29;1984;-82
2022/04/26 04:27:10;;;;;;;12.70;9.27;;;;;;;7.09;100.00;100571.44;677614;29;1408;-82
2022/04/26 04:27:31;;;;;;;12.55;8.95;;;;;;;7.10;100.00;100606.06;675674;29;1670;-82
2022/04/26 04:27:51;;;;;;;13.00;9.05;;;;;;;7.11;100.00;100593.09;679576;28;1265;-82
2022/04/26 04:28:12;;;;;;;12.75;9.30;;;;;;;7.12;100.00;100596.56;679395;28;4328;-82
2022/04/26 04:28:33;;;;;;;12.27;9.10;;;;;;;7.12;100.00;100592.25;678828;29;1653;-82
2022/04/26 04:28:53;;;;;;;12.02;9.10;;;;;;;7.14;100.00;100587.03;678426;29;1771;-82
2022/04/26 04:29:14;;;;;;;12.77;9.00;;;;;;;7.12;100.00;100594.84;677600;29;1919;-82
2022/04/26 04:29:37;;;;;;;12.13;9.20;;;;;;;7.12;100.00;100586.19;676219;29;2035;-82
2022/04/26 04:30:02;;;;;;;12.75;8.90;;;;;;;7.12;100.00;100599.19;675587;29;1658;-81
2022/04/26 04:30:22;;;;;;;12.63;9.20;;;;;;;7.09;100.00;100607.81;677898;29;1562;-81
2022/04/26 04:30:43;;;;;;;13.00;9.83;;;;;;;7.13;100.00;100614.78;679619;28;1249;-82
2022/04/26 04:31:04;;;;;;;12.65;9.18;;;;;;;7.13;100.00;100625.19;673840;29;4351;-81
2022/04/26 04:31:24;;;;;;;13.17;9.23;;;;;;;7.12;100.00;100615.63;674305;29;1635;-82
2022/04/26 04:31:45;;;;;;;12.93;9.33;;;;;;;7.11;100.00;100585.28;677688;29;1412;-82
2022/04/26 04:32:06;;;;;;;13.00;9.20;;;;;;;7.11;100.00;100608.69;677329;29;1679;-82
2022/04/26 04:32:27;;;;;;;13.13;9.05;;;;;;;7.11;100.00;100616.50;679775;28;1245;-81
2022/04/26 04:32:47;;;;;;;13.18;9.43;;;;;;;7.13;100.00;100593.09;677541;29;1572;-81
2022/04/26 04:33:08;;;;;;;13.33;9.30;;;;;;;7.12;100.00;100615.63;677361;29;1349;-82
2022/04/26 04:33:29;;;;;;;12.48;8.95;;;;;;;7.12;100.00;100614.78;676918;29;1255;-81
2022/04/26 04:33:50;;;;;;;13.05;9.10;;;;;;;7.11;100.00;100595.69;676904;29;1334;-81
2022/04/26 04:34:11;;;;;;;12.40;9.10;;;;;;;7.14;100.00;100597.44;673777;29;4341;-81
2022/04/26 04:34:31;;;;;;;13.27;9.20;;;;;;;7.13;100.00;100616.50;677858;29;1414;-81
2022/04/26 04:34:51;;;;;;;12.23;9.10;;;;;;;7.12;100.00;100613.03;677055;29;1168;-82
2022/04/26 04:35:14;;;;;;;13.30;9.30;;;;;;;7.12;100.00;100620.84;677768;29;3827;-82
2022/04/26 04:35:34;;;;;;;13.60;9.40;;;;;;;7.10;100.00;100617.38;677567;29;1245;-82
2022/04/26 04:35:55;;;;;;;13.63;9.70;;;;;;;7.13;100.00;100601.78;679324;28;1599;-82
2022/04/26 04:36:16;;;;;;;12.98;9.95;;;;;;;7.13;100.00;100599.19;680202;29;1512;-82
2022/04/26 04:36:36;;;;;;;13.50;9.82;;;;;;;7.14;100.00;100592.25;676493;29;1211;-81
2022/04/26 04:36:57;;;;;;;12.57;9.27;;;;;;;7.13;100.00;100630.38;676581;29;4354;-81
2022/04/26 04:37:17;;;;;;;11.98;9.20;;;;;;;7.10;100.00;100601.78;675860;29;984;-81
2022/04/26 04:37:37;;;;;;;12.33;9.50;;;;;;;7.13;100.00;100595.69;676826;29;1371;-82
2022/04/26 04:38:00;;;;;;;13.73;9.85;;;;;;;7.14;100.00;100592.25;672323;29;1372;-82
2022/04/26 04:38:21;;;;;;;12.52;9.23;;;;;;;7.16;100.00;100603.56;673714;29;1196;-82
2022/04/26 04:38:41;;;;;;;12.63;9.13;;;;;;;7.15;100.00;100596.59;671603;29;1305;-81
2022/04/26 04:39:02;;;;;;;12.80;9.68;;;;;;;7.15;100.00;100592.25;675447;29;4879;-81
2022/04/26 04:39:23;;;;;;;14.30;9.65;;;;;;;7.19;100.00;100636.50;678023;29;1748;-81
2022/04/26 04:39:44;;;;;;;13.60;9.48;;;;;;;7.21;100.00;100591.44;676835;29;1277;-82
2022/04/26 04:40:06;;;;;;;12.82;9.43;;;;;;;7.21;100.00;100614.84;673199;29;4307;-82
2022/04/26 04:40:26;;;;;;;13.40;9.23;;;;;;;7.23;100.00;100604.47;675638;29;1314;-82
2022/04/26 04:40:47;;;;;;;13.20;9.30;;;;;;;7.22;100.00;100621.78;675333;29;1494;-82
2022/04/26 04:41:08;;;;;;;13.30;9.38;;;;;;;7.24;100.00;100606.19;677419;29;1273;-81
2022/04/26 04:41:35;;;;;;;12.70;9.00;;;;;;;7.21;100.00;100596.63;677059;29;1347;-81
2022/04/26 04:41:56;;;;;;;10.88;8.50;;;;;;;7.20;100.00;100607.03;673508;29;1519;-81
2022/04/26 04:42:16;;;;;;;10.95;8.68;;;;;;;7.19;100.00;100610.50;677638;29;1288;-81
2022/04/26 04:42:36;;;;;;;12.33;9.67;;;;;;;7.19;100.00;100602.72;677790;29;1296;-82
2022/04/26 04:42:57;;;;;;;11.38;9.10;;;;;;;7.18;100.00;100607.00;676319;29;4345;-82
2022/04/26 04:43:17;;;;;;;12.63;8.90;;;;;;;7.18;100.00;100601.81;677631;29;1308;-81
2022/04/26 04:43:38;;;;;;;12.80;9.23;;;;;;;7.18;100.00;100601.81;676072;29;1593;-81
2022/04/26 04:44:01;;;;;;;11.70;9.20;;;;;;;7.18;100.00;100607.00;680876;29;1090;-82
2022/04/26 04:44:23;;;;;;;12.00;9.05;;;;;;;7.19;100.00;100626.97;678422;29;907;-82
2022/04/26 04:44:43;;;;;;;12.00;9.23;;;;;;;7.24;100.00;100621.78;679682;28;1177;-82
2022/04/26 04:45:10;;;;;;;13.02;9.40;;;;;;;7.31;100.00;100614.06;677019;29;892;-83
2022/04/26 04:45:35;;;;;;;13.00;9.60;;;;;;;7.32;100.00;100643.53;676643;29;1265;-82
2022/04/26 04:45:56;;;;;;;12.48;9.35;;;;;;;7.32;100.00;100635.72;679054;29;4318;-82
2022/04/26 04:46:19;;;;;;;13.00;9.07;;;;;;;7.28;100.00;100623.56;681715;29;1311;-83
2022/04/26 04:46:43;;;;;;;11.65;8.38;;;;;;;7.28;100.00;100603.66;680125;29;1179;-82
2022/04/26 04:47:03;;;;;;;11.73;8.60;;;;;;;7.26;100.00;100604.50;682388;28;1227;-83
2022/04/26 04:47:26;;;;;;;12.25;9.30;;;;;;;7.26;100.00;100605.34;677525;29;1149;-82
2022/04/26 04:47:47;;;;;;;12.63;9.67;;;;;;;7.27;100.00;100611.41;679100;28;1275;-82
2022/04/26 04:48:07;;;;;;;11.95;9.02;;;;;;;7.28;100.00;100603.66;676747;29;1564;-83
2022/04/26 04:48:28;;;;;;;12.25;8.98;;;;;;;7.30;100.00;100607.13;678412;29;1481;-82
2022/04/26 04:48:49;;;;;;;12.47;9.13;;;;;;;7.28;100.00;100605.34;678479;29;1418;-83
2022/04/26 04:49:09;;;;;;;11.60;9.00;;;;;;;7.25;100.00;100624.41;676537;29;4519;-82
2022/04/26 04:49:29;;;;;;;12.07;9.07;;;;;;;7.28;100.00;100610.56;677696;29;1141;-83
2022/04/26 04:49:53;;;;;;;12.38;9.00;;;;;;;7.31;100.00;100628.78;679408;28;1319;-82
2022/04/26 04:50:13;;;;;;;11.50;8.55;;;;;;;7.30;100.00;100603.66;677854;29;1389;-82
2022/04/26 04:50:37;;;;;;;11.70;8.84;;;;;;;7.27;100.00;100607.09;677243;29;1736;-83
2022/04/26 04:50:57;;;;;;;12.17;9.40;;;;;;;7.27;100.00;100617.50;677272;29;1310;-82
2022/04/26 04:51:17;;;;;;;12.02;9.25;;;;;;;7.26;100.00;100607.94;677955;29;1561;-83
2022/04/26 04:51:38;;;;;;;13.13;8.93;;;;;;;7.25;100.00;100618.34;677592;29;1311;-82
2022/04/26 04:51:59;;;;;;;12.60;9.02;;;;;;;7.24;100.00;100624.41;679995;28;4704;-82
2022/04/26 04:52:19;;;;;;;12.10;9.23;;;;;;;7.24;100.00;100608.78;679651;29;1490;-83
2022/04/26 04:52:41;;;;;;;13.38;9.27;;;;;;;7.22;100.00;100646.94;679112;28;1497;-83
2022/04/26 04:53:02;;;;;;;13.53;9.10;;;;;;;7.22;100.00;100602.72;677608;29;1383;-82
2022/04/26 04:53:22;;;;;;;13.38;9.18;;;;;;;7.22;100.00;100618.31;677599;29;1910;-83
2022/04/26 04:53:43;;;;;;;13.07;8.88;;;;;;;7.21;100.00;100637.38;681155;28;1796;-81
2022/04/26 04:54:04;;;;;;;12.23;9.13;;;;;;;7.21;100.00;100607.03;677391;29;1660;-83
2022/04/26 04:54:25;;;;;;;13.02;9.48;;;;;;;7.20;100.00;100601.81;675439;29;1210;-83
2022/04/26 04:54:45;;;;;;;12.30;9.27;;;;;;;7.21;100.00;100603.56;676431;29;1445;-82
2022/04/26 04:55:06;;;;;;;13.17;9.50;;;;;;;7.20;100.00;100604.44;677023;29;4293;-83
2022/04/26 04:55:27;;;;;;;12.15;8.77;;;;;;;7.21;100.00;100607.03;677849;29;1356;-82
2022/04/26 04:55:47;;;;;;;12.10;9.15;;;;;;;7.21;100.00;100630.44;677943;29;1991;-82
2022/04/26 04:56:09;;;;;;;13.40;9.70;;;;;;;7.23;100.00;100627.88;679551;28;1411;-82
2022/04/26 04:56:31;;;;;;;13.55;9.80;;;;;;;7.22;100.00;100608.78;676566;28;1514;-83
2022/04/26 04:56:51;;;;;;;13.50;9.75;;;;;;;7.21;100.00;100622.63;678081;29;1412;-82
2022/04/26 04:57:15;;;;;;;12.67;9.53;;;;;;;7.20;100.00;100633.03;679647;28;1193;-82
2022/04/26 04:57:35;;;;;;;12.52;9.65;;;;;;;7.18;100.00;100612.22;677775;29;1290;-83
2022/04/26 04:57:56;;;;;;;12.77;9.77;;;;;;;7.22;100.00;100610.53;676966;28;4436;-83
2022/04/26 04:58:16;;;;;;;12.85;9.50;;;;;;;7.20;100.00;100646.03;677685;29;1347;-82
2022/04/26 04:58:37;;;;;;;12.20;9.47;;;;;;;7.18;100.00;100611.34;680237;28;1450;-83
2022/04/26 04:58:58;;;;;;;13.23;9.57;;;;;;;7.16;100.00;100619.16;676780;29;1276;-83
2022/04/26 04:59:18;;;;;;;12.63;9.65;;;;;;;7.19;100.00;100626.09;674959;29;1629;-83
2022/04/26 04:59:38;;;;;;;12.77;9.73;;;;;;;7.18;100.00;100633.00;675657;29;1438;-83
2022/04/26 05:00:03;;;;;;;13.40;9.98;;;;;;;7.17;100.00;100613.06;674770;29;1335;-83
2022/04/26 05:00:24;;;;;;;12.88;9.93;;;;;;;7.14;100.00;100621.72;676399;29;1333;-83
2022/04/26 05:00:45;;;;;;;13.38;9.96;;;;;;;7.16;100.00;100640.81;673393;29;1413;-83
2022/04/26 05:01:05;;;;;;;13.37;9.83;;;;;;;7.24;100.00;100612.28;672013;29;4470;-83
2022/04/26 05:01:26;;;;;;;15.60;10.18;;;;;;;7.26;100.00;100609.69;675835;29;1039;-83
2022/04/26 05:01:46;;;;;;;15.57;10.17;;;;;;;7.24;100.00;100627.88;673457;29;1262;-82
2022/04/26 05:02:07;;;;;;;13.40;10.23;;;;;;;7.35;100.00;100661.75;674877;29;1331;-83
2022/04/26 05:02:28;;;;;;;13.20;9.80;;;;;;;7.31;100.00;100614.06;677118;29;1280;-83
2022/04/26 05:02:51;;;;;;;13.60;10.20;;;;;;;7.29;100.00;100626.16;677487;29;1704;-83
2022/04/26 05:03:11;;;;;;;13.65;10.38;;;;;;;7.29;100.00;100617.50;677919;29;967;-83
2022/04/26 05:03:32;;;;;;;12.80;10.30;;;;;;;7.27;100.00;100647.81;677737;29;1772;-83
2022/04/26 05:03:52;;;;;;;13.00;10.50;;;;;;;7.26;100.00;100635.69;679668;28;1744;-82
2022/04/26 05:04:12;;;;;;;15.17;10.73;;;;;;;7.27;100.00;100627.91;680540;28;4316;-83
2022/04/26 05:04:34;;;;;;;14.93;10.80;;;;;;;7.25;100.00;100629.59;678856;29;1134;-83
2022/04/26 05:04:57;;;;;;;13.50;10.70;;;;;;;7.30;100.00;100637.47;677739;29;1549;-83
2022/04/26 05:05:18;;;;;;;13.27;10.65;;;;;;;7.30;100.00;100645.25;677154;29;1478;-84
2022/04/26 05:05:39;;;;;;;14.00;10.77;;;;;;;7.28;100.00;100608.84;678415;29;1273;-83
2022/04/26 05:05:59;;;;;;;15.32;10.77;;;;;;;7.29;100.00;100640.91;674854;29;1226;-84
2022/04/26 05:06:20;;;;;;;16.00;11.00;;;;;;;7.29;100.00;100622.72;672307;29;1405;-83
2022/04/26 05:06:41;;;;;;;14.17;10.60;;;;;;;7.28;100.00;100642.66;671834;29;1235;-83
2022/04/26 05:07:01;;;;;;;14.73;10.65;;;;;;;7.37;100.00;100618.44;672660;29;4336;-83
2022/04/26 05:07:21;;;;;;;13.27;10.50;;;;;;;7.40;100.00;100643.59;678079;29;1757;-83
2022/04/26 05:07:42;;;;;;;13.50;11.00;;;;;;;7.42;100.00;100652.28;679536;28;1420;-82
2022/04/26 05:08:03;;;;;;;14.32;11.32;;;;;;;7.39;100.00;100627.09;677925;29;1334;-82
2022/04/26 05:08:25;;;;;;;14.23;10.95;;;;;;;7.37;100.00;100639.25;677419;29;1101;-83
2022/04/26 05:08:46;;;;;;;13.68;10.60;;;;;;;7.36;100.00;100621.91;677942;29;1048;-83
2022/04/26 05:09:06;;;;;;;14.23;10.82;;;;;;;7.34;100.00;100623.63;678415;29;916;-82
2022/04/26 05:09:27;;;;;;;13.93;10.83;;;;;;;7.32;100.00;100635.72;672387;29;1462;-83
2022/04/26 05:09:51;;;;;;;14.48;10.85;;;;;;;7.33;100.00;100633.13;674519;29;1415;-83
2022/04/26 05:10:12;;;;;;;14.13;10.50;;;;;;;7.32;100.00;100622.72;678888;28;4344;-82
2022/04/26 05:10:33;;;;;;;14.55;10.70;;;;;;;7.32;100.00;100621.03;681046;28;1316;-83
2022/04/26 05:10:53;;;;;;;14.60;10.27;;;;;;;7.30;100.00;100621.84;679004;29;980;-83
2022/04/26 05:11:14;;;;;;;15.10;10.45;;;;;;;7.38;100.00;100628.00;680304;28;990;-83
2022/04/26 05:11:34;;;;;;;15.43;11.13;;;;;;;7.37;100.00;100638.38;676569;29;1494;-83
2022/04/26 05:11:55;;;;;;;14.48;10.98;;;;;;;7.35;100.00;100620.16;674074;29;1237;-83
2022/04/26 05:12:16;;;;;;;13.80;11.17;;;;;;;7.35;100.00;100648.75;673996;29;1611;-83
2022/04/26 05:12:37;;;;;;;14.65;11.10;;;;;;;7.32;100.00;100628.81;676858;29;1628;-83
2022/04/26 05:12:58;;;;;;;15.32;10.90;;;;;;;7.32;100.00;100627.94;677389;29;4340;-82
2022/04/26 05:13:18;;;;;;;16.20;11.10;;;;;;;7.33;100.00;100642.69;676863;29;1896;-82
2022/04/26 05:13:39;;;;;;;15.18;10.95;;;;;;;7.30;100.00;100658.25;677448;29;2297;-83
2022/04/26 05:13:59;;;;;;;14.48;11.15;;;;;;;7.31;100.00;100641.78;680633;28;1286;-83
2022/04/26 05:14:20;;;;;;;15.27;11.27;;;;;;;7.35;100.00;100627.94;680385;29;1126;-83
2022/04/26 05:14:40;;;;;;;15.65;11.27;;;;;;;7.40;100.00;100664.41;676657;29;1377;-83
2022/04/26 05:15:02;;;;;;;16.60;11.53;;;;;;;7.40;100.00;100654.88;673470;29;1315;-83
2022/04/26 05:15:25;;;;;;;15.90;11.38;;;;;;;7.40;100.00;100660.06;677328;29;1251;-83
2022/04/26 05:15:46;;;;;;;15.95;11.20;;;;;;;7.37;100.00;100628.84;676189;29;1376;-82
2022/04/26 05:16:07;;;;;;;15.85;11.60;;;;;;;7.50;100.00;100655.81;675883;29;4339;-82
2022/04/26 05:16:27;;;;;;;14.80;11.17;;;;;;;7.55;100.00;100629.84;677492;29;1186;-83
2022/04/26 05:16:48;;;;;;;14.32;10.93;;;;;;;7.54;100.00;100638.50;676028;29;1314;-83